sensor_id;sensor_type;location;lat;lon;timestamp;temperature;humidity
52765;DHT22;38650;44.536;18.664;2022-08-25T09:42:50;31.00;93.10
52765;DHT22;38650;44.536;18.664;2022-08-25T09:45:31;30.20;93.80
52765;DHT22;38650;44.536;18.664;2022-08-25T09:47:58;29.80;94.10
52765;DHT22;38650;44.536;18.664;2022-08-25T09:50:24;29.60;96.20
52765;DHT22;38650;44.536;18.664;2022-08-25T09:53:11;29.50;96.50
52765;DHT22;38650;44.536;18.664;2022-08-25T09:55:37;29.70;96.70
52765;DHT22;38650;44.536;18.664;2022-08-25T09:58:19;29.60;96.60
52765;DHT22;38650;44.536;18.664;2022-08-25T10:01:16;29.50;95.80
52765;DHT22;38650;44.536;18.664;2022-08-25T10:03:57;29.50;96.90
52765;DHT22;38650;44.536;18.664;2022-08-25T10:06:24;29.30;96.10
52765;DHT22;38650;44.536;18.664;2022-08-25T10:08:51;29.30;96.30
52765;DHT22;38650;44.536;18.664;2022-08-25T10:11:34;29.00;96.30
52765;DHT22;38650;44.536;18.664;2022-08-25T10:14:49;28.90;96.10
52765;DHT22;38650;44.536;18.664;2022-08-25T10:16:49;28.70;97.10
52765;DHT22;38650;44.536;18.664;2022-08-25T10:19:27;28.70;97.50
52765;DHT22;38650;44.536;18.664;2022-08-25T10:22:20;28.70;97.30
52765;DHT22;38650;44.536;18.664;2022-08-25T10:24:46;29.00;96.90
52765;DHT22;38650;44.536;18.664;2022-08-25T10:33:17;29.90;96.60
52765;DHT22;38650;44.536;18.664;2022-08-25T10:38:37;29.80;96.20
52765;DHT22;38650;44.536;18.664;2022-08-25T10:43:56;30.60;96.10
52765;DHT22;38650;44.536;18.664;2022-08-25T10:46:41;31.10;98.70
52765;DHT22;38650;44.536;18.664;2022-08-25T10:49:17;31.70;96.10
52765;DHT22;38650;44.536;18.664;2022-08-25T11:11:23;33.00;93.90
52765;DHT22;38650;44.536;18.664;2022-08-25T11:16:33;33.60;92.40
52765;DHT22;38650;44.536;18.664;2022-08-25T11:21:48;33.10;91.40
52765;DHT22;38650;44.536;18.664;2022-08-25T11:26:55;33.60;92.50
52765;DHT22;38650;44.536;18.664;2022-08-25T11:29:26;33.70;90.60
52765;DHT22;38650;44.536;18.664;2022-08-25T11:31:58;34.00;90.80
52765;DHT22;38650;44.536;18.664;2022-08-25T11:34:24;34.00;91.30
52765;DHT22;38650;44.536;18.664;2022-08-25T11:37:17;34.10;90.70
52765;DHT22;38650;44.536;18.664;2022-08-25T11:45:11;34.60;91.20
52765;DHT22;38650;44.536;18.664;2022-08-25T11:55:50;34.00;83.50
52765;DHT22;38650;44.536;18.664;2022-08-25T11:58:29;34.10;87.70
52765;DHT22;38650;44.536;18.664;2022-08-25T12:00:58;34.30;89.90
52765;DHT22;38650;44.536;18.664;2022-08-25T12:19:49;35.60;78.40
52765;DHT22;38650;44.536;18.664;2022-08-25T12:27:23;34.80;78.40
52765;DHT22;38650;44.536;18.664;2022-08-25T12:30:21;34.30;77.10
52765;DHT22;38650;44.536;18.664;2022-08-25T12:33:19;34.30;80.50
52765;DHT22;38650;44.536;18.664;2022-08-25T12:36:24;34.70;81.80
52765;DHT22;38650;44.536;18.664;2022-08-25T12:38:51;34.80;78.70
52765;DHT22;38650;44.536;18.664;2022-08-25T12:41:23;34.40;75.90
52765;DHT22;38650;44.536;18.664;2022-08-25T12:43:52;34.00;76.30
52765;DHT22;38650;44.536;18.664;2022-08-25T12:51:45;33.60;77.60
52765;DHT22;38650;44.536;18.664;2022-08-25T12:54:44;33.50;77.90
52765;DHT22;38650;44.536;18.664;2022-08-25T12:57:45;33.50;77.20
52765;DHT22;38650;44.536;18.664;2022-08-25T13:10:50;33.40;79.00
52765;DHT22;38650;44.536;18.664;2022-08-25T13:16:06;33.10;78.10
52765;DHT22;38650;44.536;18.664;2022-08-25T13:18:36;33.10;79.30
52765;DHT22;38650;44.536;18.664;2022-08-25T13:23:46;33.80;77.20
52765;DHT22;38650;44.536;18.664;2022-08-25T13:26:15;33.90;76.60
52765;DHT22;38650;44.536;18.664;2022-08-25T13:28:42;33.90;77.90
52765;DHT22;38650;44.536;18.664;2022-08-25T13:31:18;34.10;73.80
52765;DHT22;38650;44.536;18.664;2022-08-25T13:33:52;34.40;72.10
52765;DHT22;38650;44.536;18.664;2022-08-25T13:36:18;34.80;73.20
52765;DHT22;38650;44.536;18.664;2022-08-25T13:39:15;35.10;76.20
52765;DHT22;38650;44.536;18.664;2022-08-25T13:41:49;35.20;73.40
52765;DHT22;38650;44.536;18.664;2022-08-25T13:44:16;35.20;72.90
52765;DHT22;38650;44.536;18.664;2022-08-25T13:46:43;35.00;71.20
52765;DHT22;38650;44.536;18.664;2022-08-25T13:49:10;34.80;71.50
52765;DHT22;38650;44.536;18.664;2022-08-25T13:51:38;34.70;71.50
52765;DHT22;38650;44.536;18.664;2022-08-25T13:54:08;34.30;75.10
52765;DHT22;38650;44.536;18.664;2022-08-25T13:56:47;34.20;73.80
52765;DHT22;38650;44.536;18.664;2022-08-25T13:59:20;34.10;71.00
52765;DHT22;38650;44.536;18.664;2022-08-25T14:01:47;34.20;73.80
52765;DHT22;38650;44.536;18.664;2022-08-25T14:06:46;34.40;73.50
52765;DHT22;38650;44.536;18.664;2022-08-25T14:09:15;34.50;72.20
52765;DHT22;38650;44.536;18.664;2022-08-25T14:11:45;34.70;70.20
52765;DHT22;38650;44.536;18.664;2022-08-25T14:19:29;34.20;72.30
52765;DHT22;38650;44.536;18.664;2022-08-25T14:21:56;34.30;71.70
52765;DHT22;38650;44.536;18.664;2022-08-25T14:24:30;34.50;72.50
52765;DHT22;38650;44.536;18.664;2022-08-25T14:26:56;34.60;70.80
52765;DHT22;38650;44.536;18.664;2022-08-25T14:29:22;34.40;72.40
52765;DHT22;38650;44.536;18.664;2022-08-25T14:31:48;34.40;71.50
52765;DHT22;38650;44.536;18.664;2022-08-25T14:36:42;34.60;72.20
52765;DHT22;38650;44.536;18.664;2022-08-25T14:39:09;34.80;71.00
52765;DHT22;38650;44.536;18.664;2022-08-25T14:41:37;34.80;73.30
52765;DHT22;38650;44.536;18.664;2022-08-25T14:44:04;34.90;70.40
52765;DHT22;38650;44.536;18.664;2022-08-25T14:46:33;35.00;70.40
52765;DHT22;38650;44.536;18.664;2022-08-25T14:49:03;34.90;69.30
52765;DHT22;38650;44.536;18.664;2022-08-25T14:51:31;35.00;69.80
52765;DHT22;38650;44.536;18.664;2022-08-25T14:54:05;35.00;69.20
52765;DHT22;38650;44.536;18.664;2022-08-25T14:56:32;34.90;70.20
52765;DHT22;38650;44.536;18.664;2022-08-25T14:58:59;35.00;68.60
52765;DHT22;38650;44.536;18.664;2022-08-25T15:01:25;35.10;69.90
52765;DHT22;38650;44.536;18.664;2022-08-25T15:03:54;34.90;68.30
52765;DHT22;38650;44.536;18.664;2022-08-25T15:06:20;34.80;70.00
52765;DHT22;38650;44.536;18.664;2022-08-25T15:08:46;34.70;70.50
52765;DHT22;38650;44.536;18.664;2022-08-25T15:11:31;34.70;71.10
52765;DHT22;38650;44.536;18.664;2022-08-25T15:13:57;34.80;71.90
52765;DHT22;38650;44.536;18.664;2022-08-25T15:16:34;34.80;71.60
52765;DHT22;38650;44.536;18.664;2022-08-25T15:19:03;34.80;71.20
52765;DHT22;38650;44.536;18.664;2022-08-25T15:21:29;34.80;71.00
52765;DHT22;38650;44.536;18.664;2022-08-25T15:23:55;34.70;70.50
52765;DHT22;38650;44.536;18.664;2022-08-25T15:26:22;34.50;68.70
52765;DHT22;38650;44.536;18.664;2022-08-25T15:28:49;34.50;70.10
52765;DHT22;38650;44.536;18.664;2022-08-25T15:31:17;34.40;70.50
52765;DHT22;38650;44.536;18.664;2022-08-25T15:33:43;34.40;70.20
52765;DHT22;38650;44.536;18.664;2022-08-25T15:36:11;34.20;70.40
52765;DHT22;38650;44.536;18.664;2022-08-25T15:38:38;33.90;71.00
52765;DHT22;38650;44.536;18.664;2022-08-25T15:41:06;33.90;71.30
52765;DHT22;38650;44.536;18.664;2022-08-25T15:43:33;34.00;73.10
52765;DHT22;38650;44.536;18.664;2022-08-25T15:45:59;34.00;72.50
52765;DHT22;38650;44.536;18.664;2022-08-25T15:48:25;34.00;73.40
52765;DHT22;38650;44.536;18.664;2022-08-25T15:50:55;34.00;74.90
52765;DHT22;38650;44.536;18.664;2022-08-25T15:53:21;34.00;73.10
52765;DHT22;38650;44.536;18.664;2022-08-25T15:55:48;33.80;71.90
52765;DHT22;38650;44.536;18.664;2022-08-25T15:58:14;33.80;72.70
52765;DHT22;38650;44.536;18.664;2022-08-25T16:00:42;33.70;73.10
52765;DHT22;38650;44.536;18.664;2022-08-25T16:03:09;33.70;73.60
52765;DHT22;38650;44.536;18.664;2022-08-25T16:05:36;33.60;74.10
52765;DHT22;38650;44.536;18.664;2022-08-25T16:08:02;33.50;73.90
52765;DHT22;38650;44.536;18.664;2022-08-25T16:10:32;33.50;74.40
52765;DHT22;38650;44.536;18.664;2022-08-25T16:12:58;33.50;73.50
52765;DHT22;38650;44.536;18.664;2022-08-25T16:15:24;33.70;74.30
52765;DHT22;38650;44.536;18.664;2022-08-25T16:17:49;34.00;73.10
52765;DHT22;38650;44.536;18.664;2022-08-25T16:20:15;34.00;71.90
52765;DHT22;38650;44.536;18.664;2022-08-25T16:22:41;33.90;73.10
52765;DHT22;38650;44.536;18.664;2022-08-25T16:25:09;33.60;72.70
52765;DHT22;38650;44.536;18.664;2022-08-25T16:27:35;33.30;73.40
52765;DHT22;38650;44.536;18.664;2022-08-25T16:30:01;33.20;73.60
52765;DHT22;38650;44.536;18.664;2022-08-25T16:32:27;33.10;74.20
52765;DHT22;38650;44.536;18.664;2022-08-25T16:34:52;33.00;73.90
52765;DHT22;38650;44.536;18.664;2022-08-25T16:37:18;32.80;74.40
52765;DHT22;38650;44.536;18.664;2022-08-25T16:39:44;32.50;77.40
52765;DHT22;38650;44.536;18.664;2022-08-25T16:42:11;32.30;78.20
52765;DHT22;38650;44.536;18.664;2022-08-25T16:44:36;32.10;78.90
52765;DHT22;38650;44.536;18.664;2022-08-25T16:47:04;31.80;79.70
52765;DHT22;38650;44.536;18.664;2022-08-25T16:49:30;31.50;81.10
52765;DHT22;38650;44.536;18.664;2022-08-25T16:51:56;31.10;82.90
52765;DHT22;38650;44.536;18.664;2022-08-25T16:54:21;31.00;84.50
52765;DHT22;38650;44.536;18.664;2022-08-25T16:57:05;30.80;84.60
52765;DHT22;38650;44.536;18.664;2022-08-25T16:59:31;30.60;85.60
52765;DHT22;38650;44.536;18.664;2022-08-25T17:01:57;30.30;87.40
52765;DHT22;38650;44.536;18.664;2022-08-25T17:04:22;30.00;89.20
52765;DHT22;38650;44.536;18.664;2022-08-25T17:06:48;29.70;90.60
52765;DHT22;38650;44.536;18.664;2022-08-25T17:09:14;29.30;92.00
52765;DHT22;38650;44.536;18.664;2022-08-25T17:11:44;29.00;93.90
52765;DHT22;38650;44.536;18.664;2022-08-25T17:14:13;28.60;95.70
52765;DHT22;38650;44.536;18.664;2022-08-25T17:16:39;28.40;97.20
52765;DHT22;38650;44.536;18.664;2022-08-25T17:19:07;28.10;98.80
52765;DHT22;38650;44.536;18.664;2022-08-25T17:21:35;27.80;99.90
52765;DHT22;38650;44.536;18.664;2022-08-25T17:24:02;27.50;99.90
52765;DHT22;38650;44.536;18.664;2022-08-25T17:26:28;27.30;99.90
52765;DHT22;38650;44.536;18.664;2022-08-25T17:28:55;27.00;99.90
52765;DHT22;38650;44.536;18.664;2022-08-25T17:31:21;27.00;99.90
52765;DHT22;38650;44.536;18.664;2022-08-25T17:33:47;26.90;99.90
52765;DHT22;38650;44.536;18.664;2022-08-25T17:36:13;26.80;99.90
52765;DHT22;38650;44.536;18.664;2022-08-25T17:38:39;26.60;99.90
52765;DHT22;38650;44.536;18.664;2022-08-25T17:41:07;26.60;99.90
52765;DHT22;38650;44.536;18.664;2022-08-25T17:43:37;26.40;99.90
52765;DHT22;38650;44.536;18.664;2022-08-25T17:46:04;26.30;99.90
52765;DHT22;38650;44.536;18.664;2022-08-25T17:48:31;26.20;99.90
52765;DHT22;38650;44.536;18.664;2022-08-25T17:50:58;26.00;99.90
52765;DHT22;38650;44.536;18.664;2022-08-25T17:53:25;26.00;99.90
52765;DHT22;38650;44.536;18.664;2022-08-25T17:56:01;26.00;99.90
52765;DHT22;38650;44.536;18.664;2022-08-25T17:58:28;26.00;99.90
52765;DHT22;38650;44.536;18.664;2022-08-25T18:00:54;26.10;99.90
52765;DHT22;38650;44.536;18.664;2022-08-25T18:03:20;26.00;99.90
52765;DHT22;38650;44.536;18.664;2022-08-25T18:05:46;25.90;99.90
52765;DHT22;38650;44.536;18.664;2022-08-25T18:08:12;25.80;99.90
52765;DHT22;38650;44.536;18.664;2022-08-25T18:10:41;25.60;99.90
52765;DHT22;38650;44.536;18.664;2022-08-25T18:13:07;25.40;99.90
52765;DHT22;38650;44.536;18.664;2022-08-25T18:15:33;25.30;99.90
52765;DHT22;38650;44.536;18.664;2022-08-25T18:17:59;25.20;99.90
52765;DHT22;38650;44.536;18.664;2022-08-25T18:20:25;25.20;99.90
52765;DHT22;38650;44.536;18.664;2022-08-25T18:22:53;25.20;99.90
52765;DHT22;38650;44.536;18.664;2022-08-25T18:25:20;25.10;99.90
52765;DHT22;38650;44.536;18.664;2022-08-25T18:27:46;25.30;99.90
52765;DHT22;38650;44.536;18.664;2022-08-25T18:30:12;25.30;99.90
52765;DHT22;38650;44.536;18.664;2022-08-25T18:32:37;25.50;99.90
52765;DHT22;38650;44.536;18.664;2022-08-25T18:35:04;25.50;99.90
52765;DHT22;38650;44.536;18.664;2022-08-25T18:37:30;25.30;99.90
52765;DHT22;38650;44.536;18.664;2022-08-25T18:40:14;25.10;99.90
52765;DHT22;38650;44.536;18.664;2022-08-25T18:42:54;25.10;99.90
52765;DHT22;38650;44.536;18.664;2022-08-25T18:45:24;25.10;99.90
52765;DHT22;38650;44.536;18.664;2022-08-25T18:47:50;25.00;99.90
52765;DHT22;38650;44.536;18.664;2022-08-25T18:50:24;25.00;99.90
52765;DHT22;38650;44.536;18.664;2022-08-25T18:52:50;25.00;99.90
52765;DHT22;38650;44.536;18.664;2022-08-25T18:55:17;24.90;99.90
52765;DHT22;38650;44.536;18.664;2022-08-25T18:57:43;25.00;99.90
52765;DHT22;38650;44.536;18.664;2022-08-25T19:00:10;25.20;99.90
52765;DHT22;38650;44.536;18.664;2022-08-25T19:02:37;25.30;99.90
52765;DHT22;38650;44.536;18.664;2022-08-25T19:05:03;25.40;99.90
52765;DHT22;38650;44.536;18.664;2022-08-25T19:07:29;25.30;99.90
52765;DHT22;38650;44.536;18.664;2022-08-25T19:09:56;25.20;99.90
52765;DHT22;38650;44.536;18.664;2022-08-25T19:12:21;25.30;99.90
52765;DHT22;38650;44.536;18.664;2022-08-25T19:14:47;25.40;99.90
52765;DHT22;38650;44.536;18.664;2022-08-25T19:17:13;25.50;99.90
52765;DHT22;38650;44.536;18.664;2022-08-25T19:19:38;25.50;99.90
52765;DHT22;38650;44.536;18.664;2022-08-25T19:22:04;25.60;99.90
52765;DHT22;38650;44.536;18.664;2022-08-25T19:24:30;25.50;99.90
52765;DHT22;38650;44.536;18.664;2022-08-25T19:26:56;25.60;99.90
52765;DHT22;38650;44.536;18.664;2022-08-25T19:29:26;25.50;99.90
52765;DHT22;38650;44.536;18.664;2022-08-25T19:31:52;25.40;99.90
52765;DHT22;38650;44.536;18.664;2022-08-25T19:34:26;25.30;99.90
52765;DHT22;38650;44.536;18.664;2022-08-25T19:36:53;25.30;99.90
52765;DHT22;38650;44.536;18.664;2022-08-25T19:39:20;25.20;99.90
52765;DHT22;38650;44.536;18.664;2022-08-25T19:41:46;25.10;99.90
52765;DHT22;38650;44.536;18.664;2022-08-25T19:44:14;24.90;99.90
52765;DHT22;38650;44.536;18.664;2022-08-25T19:46:43;24.70;99.90
52765;DHT22;38650;44.536;18.664;2022-08-25T19:49:14;24.70;99.90
52765;DHT22;38650;44.536;18.664;2022-08-25T19:51:46;24.80;99.90
52765;DHT22;38650;44.536;18.664;2022-08-25T19:54:15;24.80;99.90
52765;DHT22;38650;44.536;18.664;2022-08-25T19:56:42;24.70;99.90
52765;DHT22;38650;44.536;18.664;2022-08-25T19:59:07;24.60;99.90
52765;DHT22;38650;44.536;18.664;2022-08-25T20:01:33;24.50;99.90
52765;DHT22;38650;44.536;18.664;2022-08-25T20:04:01;24.50;99.90
52765;DHT22;38650;44.536;18.664;2022-08-25T20:06:28;24.60;99.90
52765;DHT22;38650;44.536;18.664;2022-08-25T20:08:56;24.70;99.90
52765;DHT22;38650;44.536;18.664;2022-08-25T20:11:24;24.70;99.90
52765;DHT22;38650;44.536;18.664;2022-08-25T20:13:50;24.80;99.90
52765;DHT22;38650;44.536;18.664;2022-08-25T20:16:16;24.80;99.90
52765;DHT22;38650;44.536;18.664;2022-08-25T20:18:42;24.60;99.90
52765;DHT22;38650;44.536;18.664;2022-08-25T20:21:08;24.60;99.90
52765;DHT22;38650;44.536;18.664;2022-08-25T20:23:33;24.70;99.90
52765;DHT22;38650;44.536;18.664;2022-08-25T20:26:17;24.70;99.90
52765;DHT22;38650;44.536;18.664;2022-08-25T20:28:43;24.60;99.90
52765;DHT22;38650;44.536;18.664;2022-08-25T20:31:09;24.30;99.90
52765;DHT22;38650;44.536;18.664;2022-08-25T20:33:34;24.20;99.90
52765;DHT22;38650;44.536;18.664;2022-08-25T20:36:00;24.30;99.90
52765;DHT22;38650;44.536;18.664;2022-08-25T20:38:27;24.20;99.90
52765;DHT22;38650;44.536;18.664;2022-08-25T20:40:55;24.20;99.90
52765;DHT22;38650;44.536;18.664;2022-08-25T20:43:21;24.20;99.90
52765;DHT22;38650;44.536;18.664;2022-08-25T20:45:46;24.20;99.90
52765;DHT22;38650;44.536;18.664;2022-08-25T20:48:12;24.20;99.90
52765;DHT22;38650;44.536;18.664;2022-08-25T20:50:38;24.20;99.90
52765;DHT22;38650;44.536;18.664;2022-08-25T20:53:04;24.30;99.90
52765;DHT22;38650;44.536;18.664;2022-08-25T20:55:30;24.30;99.90
52765;DHT22;38650;44.536;18.664;2022-08-25T20:57:56;24.30;99.90
52765;DHT22;38650;44.536;18.664;2022-08-25T21:00:22;24.30;99.90
52765;DHT22;38650;44.536;18.664;2022-08-25T21:02:48;24.30;99.90
52765;DHT22;38650;44.536;18.664;2022-08-25T21:05:16;24.20;99.90
52765;DHT22;38650;44.536;18.664;2022-08-25T21:07:42;24.20;99.90
52765;DHT22;38650;44.536;18.664;2022-08-25T21:10:09;24.20;99.90
52765;DHT22;38650;44.536;18.664;2022-08-25T21:12:36;24.10;99.90
52765;DHT22;38650;44.536;18.664;2022-08-25T21:15:02;24.10;99.90
52765;DHT22;38650;44.536;18.664;2022-08-25T21:17:28;24.10;99.90
52765;DHT22;38650;44.536;18.664;2022-08-25T21:19:54;24.10;99.90
52765;DHT22;38650;44.536;18.664;2022-08-25T21:22:19;24.00;99.90
52765;DHT22;38650;44.536;18.664;2022-08-25T21:24:45;24.00;99.90
52765;DHT22;38650;44.536;18.664;2022-08-25T21:27:11;24.10;99.90
52765;DHT22;38650;44.536;18.664;2022-08-25T21:29:37;24.00;99.90
52765;DHT22;38650;44.536;18.664;2022-08-25T21:32:03;23.90;99.90
52765;DHT22;38650;44.536;18.664;2022-08-25T21:34:28;23.80;99.90
52765;DHT22;38650;44.536;18.664;2022-08-25T21:36:55;23.80;99.90
52765;DHT22;38650;44.536;18.664;2022-08-25T21:39:22;23.80;99.90
52765;DHT22;38650;44.536;18.664;2022-08-25T21:41:48;23.80;99.90
52765;DHT22;38650;44.536;18.664;2022-08-25T21:44:14;23.80;99.90
52765;DHT22;38650;44.536;18.664;2022-08-25T21:46:40;23.80;99.90
52765;DHT22;38650;44.536;18.664;2022-08-25T21:49:06;23.80;99.90
52765;DHT22;38650;44.536;18.664;2022-08-25T21:51:38;23.70;99.90
52765;DHT22;38650;44.536;18.664;2022-08-25T21:54:06;23.70;99.90
52765;DHT22;38650;44.536;18.664;2022-08-25T21:57:00;23.70;99.90
52765;DHT22;38650;44.536;18.664;2022-08-25T21:59:36;23.60;99.90
52765;DHT22;38650;44.536;18.664;2022-08-25T22:02:08;23.60;99.90
52765;DHT22;38650;44.536;18.664;2022-08-25T22:04:35;23.60;99.90
52765;DHT22;38650;44.536;18.664;2022-08-25T22:07:00;23.50;99.90
52765;DHT22;38650;44.536;18.664;2022-08-25T22:09:26;23.50;99.90
52765;DHT22;38650;44.536;18.664;2022-08-25T22:11:52;23.50;99.90
52765;DHT22;38650;44.536;18.664;2022-08-25T22:14:20;23.50;99.90
52765;DHT22;38650;44.536;18.664;2022-08-25T22:16:46;23.50;99.90
52765;DHT22;38650;44.536;18.664;2022-08-25T22:19:12;23.50;99.90
52765;DHT22;38650;44.536;18.664;2022-08-25T22:21:40;23.50;99.90
52765;DHT22;38650;44.536;18.664;2022-08-25T22:24:06;23.50;99.90
52765;DHT22;38650;44.536;18.664;2022-08-25T22:26:33;23.50;99.90
52765;DHT22;38650;44.536;18.664;2022-08-25T22:28:59;23.40;99.90
52765;DHT22;38650;44.536;18.664;2022-08-25T22:31:25;23.40;99.90
52765;DHT22;38650;44.536;18.664;2022-08-25T22:33:52;23.40;99.90
52765;DHT22;38650;44.536;18.664;2022-08-25T22:36:30;23.40;99.90
52765;DHT22;38650;44.536;18.664;2022-08-25T22:38:56;23.30;99.90
52765;DHT22;38650;44.536;18.664;2022-08-25T22:41:24;23.30;99.90
52765;DHT22;38650;44.536;18.664;2022-08-25T22:43:51;23.30;99.90
52765;DHT22;38650;44.536;18.664;2022-08-25T22:46:18;23.20;99.90
52765;DHT22;38650;44.536;18.664;2022-08-25T22:48:44;23.20;99.90
52765;DHT22;38650;44.536;18.664;2022-08-25T22:51:15;23.10;99.90
52765;DHT22;38650;44.536;18.664;2022-08-25T22:53:43;23.10;99.90
52765;DHT22;38650;44.536;18.664;2022-08-25T22:56:10;23.00;99.90
52765;DHT22;38650;44.536;18.664;2022-08-25T22:58:37;23.00;99.90
52765;DHT22;38650;44.536;18.664;2022-08-25T23:01:03;23.00;99.90
52765;DHT22;38650;44.536;18.664;2022-08-25T23:03:36;23.00;99.90
52765;DHT22;38650;44.536;18.664;2022-08-25T23:06:01;23.00;99.90
52765;DHT22;38650;44.536;18.664;2022-08-25T23:08:27;22.90;99.90
52765;DHT22;38650;44.536;18.664;2022-08-25T23:10:54;22.90;99.90
52765;DHT22;38650;44.536;18.664;2022-08-25T23:13:22;22.90;99.90
52765;DHT22;38650;44.536;18.664;2022-08-25T23:15:49;22.90;99.90
52765;DHT22;38650;44.536;18.664;2022-08-25T23:18:16;22.90;99.90
52765;DHT22;38650;44.536;18.664;2022-08-25T23:20:42;22.90;99.90
52765;DHT22;38650;44.536;18.664;2022-08-25T23:23:27;22.90;99.90
52765;DHT22;38650;44.536;18.664;2022-08-25T23:25:53;22.80;99.90
52765;DHT22;38650;44.536;18.664;2022-08-25T23:28:19;22.80;99.90
52765;DHT22;38650;44.536;18.664;2022-08-25T23:30:45;22.80;99.90
52765;DHT22;38650;44.536;18.664;2022-08-25T23:33:11;22.80;99.90
52765;DHT22;38650;44.536;18.664;2022-08-25T23:35:40;22.70;99.90
52765;DHT22;38650;44.536;18.664;2022-08-25T23:38:07;22.70;99.90
52765;DHT22;38650;44.536;18.664;2022-08-25T23:40:32;22.70;99.90
52765;DHT22;38650;44.536;18.664;2022-08-25T23:42:59;22.70;99.90
52765;DHT22;38650;44.536;18.664;2022-08-25T23:45:25;22.70;99.90
52765;DHT22;38650;44.536;18.664;2022-08-25T23:47:50;22.70;99.90
52765;DHT22;38650;44.536;18.664;2022-08-25T23:50:16;22.60;99.90
52765;DHT22;38650;44.536;18.664;2022-08-25T23:52:42;22.50;99.90
52765;DHT22;38650;44.536;18.664;2022-08-25T23:55:08;22.50;99.90
52765;DHT22;38650;44.536;18.664;2022-08-25T23:57:34;22.50;99.90
